createdAt,value
2024-03-06T00:00:37.627Z,20.43
2024-03-06T00:01:37.763Z,20.43
2024-03-06T00:02:37.795Z,20.43
2024-03-06T00:03:37.837Z,20.42
2024-03-06T00:04:37.974Z,20.41
2024-03-06T00:05:37.942Z,20.40
2024-03-06T00:06:38.006Z,20.39
2024-03-06T00:07:38.055Z,20.39
2024-03-06T00:08:38.091Z,20.38
2024-03-06T00:09:38.181Z,20.38
2024-03-06T00:10:38.391Z,20.38
2024-03-06T00:11:38.399Z,20.37
2024-03-06T00:12:38.437Z,20.37
2024-03-06T00:13:38.457Z,20.37
2024-03-06T00:14:38.524Z,20.36
2024-03-06T00:15:38.533Z,20.35
2024-03-06T00:16:38.612Z,20.35
2024-03-06T00:17:38.702Z,20.35
2024-03-06T00:18:38.723Z,20.35
2024-03-06T00:19:38.824Z,20.35
2024-03-06T00:20:38.852Z,20.34
2024-03-06T00:21:38.927Z,20.34
2024-03-06T00:22:38.990Z,20.33
2024-03-06T00:23:39.061Z,20.34
2024-03-06T00:24:39.125Z,20.34
2024-03-06T00:25:39.307Z,20.34
2024-03-06T00:26:39.255Z,20.32
2024-03-06T00:27:39.311Z,20.33
2024-03-06T00:28:39.417Z,20.33
2024-03-06T00:29:39.455Z,20.32
2024-03-06T00:30:39.495Z,20.32
2024-03-06T00:31:39.615Z,20.30
2024-03-06T00:32:39.660Z,20.29
2024-03-06T00:33:39.818Z,20.29
2024-03-06T00:34:39.816Z,20.28
2024-03-06T00:35:39.867Z,20.28
2024-03-06T00:36:39.950Z,20.27
2024-03-06T00:37:40.034Z,20.27
2024-03-06T00:38:40.089Z,20.26
2024-03-06T00:39:40.154Z,20.26
2024-03-06T00:40:40.270Z,20.26
2024-03-06T00:41:40.294Z,20.25
2024-03-06T00:42:40.317Z,20.25
2024-03-06T00:43:40.457Z,20.25
2024-03-06T00:44:40.490Z,20.26
2024-03-06T00:45:40.607Z,20.24
2024-03-06T00:46:40.662Z,20.23
2024-03-06T00:47:40.737Z,20.22
2024-03-06T00:48:42.177Z,20.21
2024-03-06T00:49:40.875Z,20.22
2024-03-06T00:50:40.955Z,20.20
2024-03-06T00:51:45.183Z,20.20
2024-03-06T00:52:42.021Z,20.20
2024-03-06T00:53:41.014Z,20.18
2024-03-06T00:54:40.967Z,20.19
2024-03-06T00:55:41.064Z,20.17
2024-03-06T00:56:40.976Z,20.17
2024-03-06T00:57:40.999Z,20.17
2024-03-06T00:58:41.033Z,20.16
2024-03-06T00:59:41.004Z,20.15
2024-03-06T01:00:41.076Z,20.16
2024-03-06T01:01:41.066Z,20.16
2024-03-06T01:02:41.110Z,20.16
2024-03-06T01:03:41.147Z,20.15
2024-03-06T01:04:41.231Z,20.15
2024-03-06T01:05:41.264Z,20.16
2024-03-06T01:06:41.298Z,20.14
2024-03-06T01:07:41.422Z,20.15
2024-03-06T01:08:41.359Z,20.15
2024-03-06T01:09:41.436Z,20.14
2024-03-06T01:10:41.533Z,20.14
2024-03-06T01:11:41.511Z,20.14
2024-03-06T01:12:41.598Z,20.15
2024-03-06T01:13:41.647Z,20.14
2024-03-06T01:14:41.632Z,20.13
2024-03-06T01:15:41.679Z,20.13
2024-03-06T01:16:41.722Z,20.12
2024-03-06T01:17:41.753Z,20.12
2024-03-06T01:18:41.745Z,20.11
2024-03-06T01:19:41.805Z,20.10
2024-03-06T01:20:41.805Z,20.10
2024-03-06T01:21:41.860Z,20.10
2024-03-06T01:22:41.884Z,20.10
2024-03-06T01:23:41.922Z,20.09
2024-03-06T01:24:41.880Z,20.08
2024-03-06T01:25:41.903Z,20.08
2024-03-06T01:26:41.920Z,20.07
2024-03-06T01:27:41.995Z,20.07
2024-03-06T01:28:41.929Z,20.06
2024-03-06T01:29:41.995Z,20.06
2024-03-06T01:30:41.975Z,20.05
2024-03-06T01:31:42.018Z,20.04
2024-03-06T01:32:42.078Z,20.03
2024-03-06T01:33:41.969Z,20.02
2024-03-06T01:34:41.997Z,20.02
2024-03-06T01:35:41.991Z,20.01
2024-03-06T01:36:41.981Z,19.99
2024-03-06T01:37:42.017Z,19.99
2024-03-06T01:38:41.994Z,19.98
2024-03-06T01:39:41.994Z,19.97
2024-03-06T01:40:42.116Z,19.96
2024-03-06T01:41:42.002Z,19.96
2024-03-06T01:42:41.989Z,19.97
2024-03-06T01:43:42.043Z,19.96
2024-03-06T01:44:42.020Z,19.94
2024-03-06T01:45:42.072Z,19.92
2024-03-06T01:46:42.132Z,19.92
2024-03-06T01:47:42.086Z,19.90
2024-03-06T01:48:42.106Z,19.89
2024-03-06T01:49:45.302Z,19.88
2024-03-06T01:50:42.119Z,19.86
2024-03-06T01:51:42.089Z,19.84
2024-03-06T01:52:42.127Z,19.83
2024-03-06T01:53:42.094Z,19.84
2024-03-06T01:54:42.117Z,19.83
2024-03-06T01:55:42.228Z,19.82
2024-03-06T01:56:42.124Z,19.82
2024-03-06T01:57:42.101Z,19.81
2024-03-06T01:58:42.170Z,19.80
2024-03-06T01:59:42.142Z,19.80
2024-03-06T02:00:42.116Z,19.80
2024-03-06T02:01:42.151Z,19.81
2024-03-06T02:02:42.119Z,19.81
2024-03-06T02:03:42.106Z,19.83
2024-03-06T02:04:42.126Z,19.82
2024-03-06T02:05:42.114Z,19.82
2024-03-06T02:06:42.121Z,19.81
2024-03-06T02:07:42.163Z,19.80
2024-03-06T02:08:42.132Z,19.79
2024-03-06T02:09:42.099Z,19.80
2024-03-06T02:10:42.151Z,19.79
2024-03-06T02:11:42.082Z,19.79
2024-03-06T02:12:42.121Z,19.77
2024-03-06T02:13:42.199Z,19.75
2024-03-06T02:14:42.102Z,19.73
2024-03-06T02:15:42.140Z,19.72
2024-03-06T02:16:42.227Z,19.72
2024-03-06T02:17:42.104Z,19.72
2024-03-06T02:18:42.113Z,19.71
2024-03-06T02:19:42.190Z,19.70
2024-03-06T02:20:42.150Z,19.70
2024-03-06T02:21:42.108Z,19.69
2024-03-06T02:22:42.145Z,19.69
2024-03-06T02:23:42.162Z,19.68
2024-03-06T02:24:42.140Z,19.67
2024-03-06T02:25:42.153Z,19.67
2024-03-06T02:26:42.118Z,19.67
2024-03-06T02:27:42.121Z,19.67
2024-03-06T02:28:42.121Z,19.66
2024-03-06T02:29:42.162Z,19.66
2024-03-06T02:30:42.132Z,19.67
2024-03-06T02:31:42.181Z,19.65
2024-03-06T02:32:42.198Z,19.64
2024-03-06T02:33:42.118Z,19.63
2024-03-06T02:34:42.182Z,19.62
2024-03-06T02:35:42.171Z,19.61
2024-03-06T02:36:42.139Z,19.61
2024-03-06T02:37:42.173Z,19.60
2024-03-06T02:38:42.129Z,19.60
2024-03-06T02:39:42.159Z,19.60
2024-03-06T02:40:42.233Z,19.59
2024-03-06T02:41:42.172Z,19.59
2024-03-06T02:42:42.192Z,19.58
2024-03-06T02:43:42.172Z,19.58
2024-03-06T02:44:42.129Z,19.56
2024-03-06T02:45:42.141Z,19.53
2024-03-06T02:46:42.176Z,19.54
2024-03-06T02:47:42.231Z,19.53
2024-03-06T02:48:42.155Z,19.51
2024-03-06T02:49:42.206Z,19.50
2024-03-06T02:50:42.146Z,19.49
2024-03-06T02:51:42.136Z,19.49
2024-03-06T02:52:42.233Z,19.50
2024-03-06T02:53:42.230Z,19.49
2024-03-06T02:54:42.148Z,19.49
2024-03-06T02:55:42.288Z,19.50
2024-03-06T02:56:42.166Z,19.48
2024-03-06T02:57:42.218Z,19.49
2024-03-06T02:58:42.319Z,19.50
2024-03-06T02:59:42.342Z,19.48
2024-03-06T03:00:42.486Z,19.47
2024-03-06T03:01:42.505Z,19.46
2024-03-06T03:02:42.507Z,19.45
2024-03-06T03:03:42.569Z,19.46
2024-03-06T03:04:42.607Z,19.47
2024-03-06T03:05:42.687Z,19.47
2024-03-06T03:06:42.686Z,19.46
2024-03-06T03:07:42.745Z,19.48
2024-03-06T03:08:42.812Z,19.47
2024-03-06T03:09:42.859Z,19.47
2024-03-06T03:10:42.957Z,19.47
2024-03-06T03:11:42.979Z,19.46
2024-03-06T03:12:43.051Z,19.46
2024-03-06T03:13:43.105Z,19.47
2024-03-06T03:14:43.171Z,19.47
2024-03-06T03:15:43.197Z,19.46
2024-03-06T03:16:43.383Z,19.45
2024-03-06T03:17:43.360Z,19.46
2024-03-06T03:18:43.392Z,19.45
2024-03-06T03:19:43.494Z,19.45
2024-03-06T03:20:43.507Z,19.44
2024-03-06T03:21:43.558Z,19.42
2024-03-06T03:22:43.641Z,19.41
2024-03-06T03:23:43.630Z,19.41
2024-03-06T03:24:43.679Z,19.41
2024-03-06T03:25:43.769Z,19.42
2024-03-06T03:26:43.794Z,19.41
2024-03-06T03:27:43.864Z,19.40
2024-03-06T03:28:43.929Z,19.40
2024-03-06T03:29:43.970Z,19.39
2024-03-06T03:30:44.034Z,19.38
2024-03-06T03:31:44.076Z,19.39
2024-03-06T03:32:44.140Z,19.37
2024-03-06T03:33:44.154Z,19.37
2024-03-06T03:34:44.238Z,19.37
2024-03-06T03:35:44.317Z,19.37
2024-03-06T03:36:44.331Z,19.37
2024-03-06T03:37:44.434Z,19.36
2024-03-06T03:38:44.444Z,19.35
2024-03-06T03:39:44.497Z,19.34
2024-03-06T03:40:44.559Z,19.34
2024-03-06T03:41:44.668Z,19.34
2024-03-06T03:42:44.649Z,19.33
2024-03-06T03:43:44.713Z,19.33
2024-03-06T03:44:44.728Z,19.31
2024-03-06T03:45:44.793Z,19.30
2024-03-06T03:46:44.954Z,19.31
2024-03-06T03:47:44.958Z,19.31
2024-03-06T03:48:44.957Z,19.31
2024-03-06T03:49:48.624Z,19.29
2024-03-06T03:50:46.112Z,19.28
2024-03-06T03:51:45.016Z,19.27
2024-03-06T03:52:45.112Z,19.29
2024-03-06T03:53:45.027Z,19.29
2024-03-06T03:54:45.029Z,19.29
2024-03-06T03:55:45.036Z,19.30
2024-03-06T03:56:45.039Z,19.29
2024-03-06T03:57:45.027Z,19.28
2024-03-06T03:58:45.067Z,19.28
2024-03-06T03:59:45.030Z,19.25
2024-03-06T04:00:45.113Z,19.24
2024-03-06T04:01:45.169Z,19.24
2024-03-06T04:02:45.210Z,19.24
2024-03-06T04:03:45.289Z,19.23
2024-03-06T04:04:45.391Z,19.24
2024-03-06T04:05:45.384Z,19.24
2024-03-06T04:06:45.431Z,19.24
2024-03-06T04:07:45.495Z,19.22
2024-03-06T04:08:45.552Z,19.21
2024-03-06T04:09:45.589Z,19.20
2024-03-06T04:10:45.670Z,19.21
2024-03-06T04:11:45.740Z,19.20
2024-03-06T04:12:45.812Z,19.20
2024-03-06T04:13:45.927Z,19.19
2024-03-06T04:14:45.923Z,19.18
2024-03-06T04:15:45.990Z,19.17
2024-03-06T04:16:46.042Z,19.17
2024-03-06T04:17:46.091Z,19.17
2024-03-06T04:18:46.175Z,19.17
2024-03-06T04:19:46.259Z,19.16
2024-03-06T04:20:46.293Z,19.17
2024-03-06T04:21:46.374Z,19.16
2024-03-06T04:22:46.446Z,19.16
2024-03-06T04:23:46.460Z,19.16
2024-03-06T04:24:46.518Z,19.15
2024-03-06T04:25:46.668Z,19.15
2024-03-06T04:26:46.681Z,19.14
2024-03-06T04:27:46.732Z,19.12
2024-03-06T04:28:46.823Z,19.10
2024-03-06T04:29:46.888Z,19.12
2024-03-06T04:30:46.972Z,19.13
2024-03-06T04:31:47.029Z,19.13
2024-03-06T04:32:47.069Z,19.13
2024-03-06T04:33:47.181Z,19.10
2024-03-06T04:34:47.218Z,19.09
2024-03-06T04:35:47.302Z,19.09
2024-03-06T04:36:47.331Z,19.08
2024-03-06T04:37:47.410Z,19.07
2024-03-06T04:38:47.466Z,19.06
2024-03-06T04:39:47.519Z,19.06
2024-03-06T04:40:47.676Z,19.08
2024-03-06T04:41:47.705Z,19.08
2024-03-06T04:42:47.741Z,19.08
2024-03-06T04:43:47.888Z,19.08
2024-03-06T04:44:47.911Z,19.09
2024-03-06T04:45:47.995Z,19.08
2024-03-06T04:46:48.090Z,19.08
2024-03-06T04:47:48.137Z,19.08
2024-03-06T04:48:48.197Z,19.07
2024-03-06T04:49:48.329Z,19.07
2024-03-06T04:50:48.358Z,19.05
2024-03-06T04:51:48.383Z,19.04
2024-03-06T04:52:48.507Z,19.04
2024-03-06T04:53:48.537Z,19.04
2024-03-06T04:54:48.624Z,19.04
2024-03-06T04:55:56.110Z,19.01
2024-03-06T04:56:55.981Z,19.02
2024-03-06T04:57:55.986Z,19.03
2024-03-06T04:58:56.002Z,19.04
2024-03-06T04:59:56.012Z,19.05
2024-03-06T05:00:56.125Z,19.04
2024-03-06T05:01:56.122Z,19.05
2024-03-06T05:58:13.504Z,19.14
2024-03-06T05:58:56.384Z,19.26
2024-03-06T05:59:56.362Z,19.34
2024-03-06T06:00:56.422Z,19.41
2024-03-06T06:01:56.370Z,19.46
2024-03-06T06:02:56.381Z,19.49
2024-03-06T06:03:56.365Z,19.54
2024-03-06T06:05:04.980Z,19.57
2024-03-06T06:05:57.376Z,19.60
2024-03-06T06:06:56.409Z,19.62
2024-03-06T06:07:56.405Z,19.65
2024-03-06T06:08:56.363Z,19.68
2024-03-06T06:09:56.360Z,19.69
2024-03-06T06:10:56.474Z,19.71
2024-03-06T06:11:56.469Z,19.74
2024-03-06T06:12:56.370Z,19.75
2024-03-06T06:13:56.443Z,19.78
2024-03-06T06:14:56.381Z,19.80
2024-03-06T06:15:56.347Z,19.82
2024-03-06T06:16:56.450Z,19.83
2024-03-06T06:17:56.501Z,19.85
2024-03-06T06:18:56.429Z,19.88
2024-03-06T06:19:56.553Z,19.90
2024-03-06T06:20:56.605Z,19.92
2024-03-06T06:21:56.651Z,19.93
2024-03-06T06:22:56.757Z,19.95
2024-03-06T06:23:56.764Z,19.97
2024-03-06T06:24:56.798Z,19.99
2024-03-06T06:25:56.929Z,20.00
2024-03-06T06:26:56.908Z,20.02
2024-03-06T06:27:56.985Z,20.04
2024-03-06T06:28:57.051Z,20.05
2024-03-06T06:29:57.115Z,20.07
2024-03-06T06:30:57.179Z,20.08
2024-03-06T06:31:57.240Z,20.10
2024-03-06T06:32:57.261Z,20.11
2024-03-06T06:33:57.306Z,20.13
2024-03-06T06:34:57.373Z,20.13
2024-03-06T06:35:57.462Z,20.15
2024-03-06T06:36:57.461Z,20.16
2024-03-06T06:37:57.544Z,20.18
2024-03-06T06:38:57.547Z,20.22
2024-03-06T06:39:57.608Z,20.26
2024-03-06T06:40:57.708Z,20.30
2024-03-06T06:41:57.800Z,20.32
2024-03-06T06:42:57.799Z,20.34
2024-03-06T06:43:57.864Z,20.35
2024-03-06T06:44:57.882Z,20.37
2024-03-06T06:45:59.216Z,20.39
2024-03-06T06:46:58.038Z,20.41
2024-03-06T06:47:58.106Z,20.44
2024-03-06T06:48:58.049Z,20.48
2024-03-06T06:49:58.162Z,20.52
2024-03-06T06:50:58.127Z,20.57
2024-03-06T06:51:58.154Z,20.62
2024-03-06T06:52:58.221Z,20.67
2024-03-06T06:54:00.785Z,20.73
2024-03-06T06:54:58.186Z,20.79
2024-03-06T06:55:58.276Z,20.84
2024-03-06T06:56:58.186Z,20.89
2024-03-06T06:57:58.165Z,20.94
2024-03-06T06:58:58.268Z,20.99
2024-03-06T06:59:58.197Z,21.04
2024-03-06T07:00:58.209Z,21.09
2024-03-06T07:01:58.459Z,21.12
2024-03-06T07:02:58.211Z,21.16
2024-03-06T07:03:58.224Z,21.19
2024-03-06T07:04:58.266Z,21.23
2024-03-06T07:05:58.203Z,21.26
2024-03-06T07:06:58.201Z,21.29
2024-03-06T07:07:58.268Z,21.33
2024-03-06T07:08:58.252Z,21.35
2024-03-06T07:09:58.205Z,21.38
2024-03-06T07:10:58.273Z,21.41
2024-03-06T07:11:58.271Z,21.44
2024-03-06T07:12:58.214Z,21.45
2024-03-06T07:13:58.264Z,21.47
2024-03-06T07:14:58.210Z,21.50
2024-03-06T07:15:58.231Z,21.52
2024-03-06T07:16:58.258Z,21.53
2024-03-06T07:17:58.366Z,21.55
2024-03-06T07:18:58.209Z,21.56
2024-03-06T07:19:58.249Z,21.56
2024-03-06T07:20:58.227Z,21.58
2024-03-06T07:21:58.251Z,21.60
2024-03-06T07:22:58.260Z,21.61
2024-03-06T07:23:58.196Z,21.63
2024-03-06T07:24:58.209Z,21.63
2024-03-06T07:25:58.292Z,21.65
2024-03-06T07:26:58.225Z,21.67
2024-03-06T07:27:58.246Z,21.69
2024-03-06T07:28:58.275Z,21.65
2024-03-06T07:29:58.245Z,21.64
2024-03-06T07:30:58.242Z,21.63
2024-03-06T07:31:58.294Z,21.64
2024-03-06T07:32:58.278Z,21.65
2024-03-06T07:33:58.280Z,21.65
2024-03-06T07:34:58.274Z,21.67
2024-03-06T07:35:58.271Z,21.67
2024-03-06T07:36:58.851Z,21.69
2024-03-06T07:37:58.287Z,21.71
2024-03-06T07:38:58.253Z,21.71
2024-03-06T07:39:58.278Z,21.74
2024-03-06T07:40:58.338Z,21.74
2024-03-06T07:41:58.283Z,21.75
2024-03-06T07:42:58.271Z,21.75
2024-03-06T07:43:58.274Z,21.76
2024-03-06T07:44:58.256Z,21.77
2024-03-06T07:45:58.256Z,21.79
2024-03-06T07:46:58.317Z,21.79
2024-03-06T07:47:58.370Z,21.81
2024-03-06T07:48:58.240Z,21.82
2024-03-06T07:49:58.319Z,21.83
2024-03-06T07:50:58.260Z,21.83
2024-03-06T07:51:58.324Z,21.84
2024-03-06T07:52:58.383Z,21.85
2024-03-06T07:53:58.260Z,21.86
2024-03-06T07:54:58.269Z,21.84
2024-03-06T07:55:58.323Z,21.82
2024-03-06T07:56:58.354Z,21.79
2024-03-06T07:57:58.355Z,21.77
2024-03-06T07:58:58.473Z,21.75
2024-03-06T07:59:58.437Z,21.73
2024-03-06T08:00:58.492Z,21.71
2024-03-06T08:01:58.601Z,21.70
2024-03-06T08:02:58.639Z,21.69
2024-03-06T08:03:58.666Z,21.68
2024-03-06T08:04:58.714Z,21.68
2024-03-06T08:05:58.754Z,21.66
2024-03-06T08:06:58.831Z,21.64
2024-03-06T08:07:58.909Z,21.62
2024-03-06T08:09:01.107Z,21.59
2024-03-06T08:09:58.906Z,21.56
2024-03-06T08:10:58.964Z,21.54
2024-03-06T08:11:59.070Z,21.54
2024-03-06T08:12:58.903Z,21.53
2024-03-06T08:13:58.964Z,21.52
2024-03-06T08:14:58.917Z,21.52
2024-03-06T08:15:58.885Z,21.51
2024-03-06T08:16:58.929Z,21.50
2024-03-06T08:17:58.953Z,21.50
2024-03-06T08:18:58.905Z,21.49
2024-03-06T08:19:58.962Z,21.48
2024-03-06T08:20:58.912Z,21.49
2024-03-06T08:21:58.983Z,21.48
2024-03-06T08:22:59.003Z,21.48
2024-03-06T08:23:58.901Z,21.49
2024-03-06T08:24:58.899Z,21.49
2024-03-06T08:25:58.905Z,21.50
2024-03-06T08:26:58.910Z,21.50
2024-03-06T08:27:58.901Z,21.50
2024-03-06T08:28:58.962Z,21.49
2024-03-06T08:29:58.937Z,21.48
2024-03-06T08:30:58.920Z,21.49
2024-03-06T08:31:58.937Z,21.49
2024-03-06T08:32:59.083Z,21.47
2024-03-06T08:33:58.993Z,21.47
2024-03-06T08:34:58.948Z,21.47
2024-03-06T08:35:59.006Z,21.48
2024-03-06T08:36:58.960Z,21.48
2024-03-06T08:37:59.008Z,21.48
2024-03-06T08:38:58.942Z,21.47
2024-03-06T08:39:58.932Z,21.47
2024-03-06T08:40:59.024Z,21.47
2024-03-06T08:41:58.996Z,21.49
2024-03-06T08:42:59.033Z,21.48
2024-03-06T08:43:59.095Z,21.48
2024-03-06T08:44:59.131Z,21.47
2024-03-06T08:45:59.185Z,21.47
2024-03-06T08:46:59.769Z,21.46
2024-03-06T08:47:59.310Z,21.46
2024-03-06T08:49:03.203Z,21.46
2024-03-06T08:50:00.355Z,21.45
2024-03-06T08:50:59.326Z,21.45
2024-03-06T08:51:59.311Z,21.44
2024-03-06T08:52:59.419Z,21.44
2024-03-06T08:53:59.330Z,21.45
2024-03-06T08:54:59.325Z,21.45
2024-03-06T08:55:59.349Z,21.45
2024-03-06T08:56:59.351Z,21.45
2024-03-06T08:57:59.354Z,21.45
2024-03-06T08:58:59.358Z,21.46
2024-03-06T08:59:59.382Z,21.45
2024-03-06T09:00:59.423Z,21.46
2024-03-06T09:01:59.500Z,21.46
2024-03-06T09:02:59.503Z,21.46
2024-03-06T09:03:59.580Z,21.46
2024-03-06T09:04:59.724Z,21.47
2024-03-06T09:05:59.681Z,21.47
2024-03-06T09:06:59.711Z,21.47
2024-03-06T09:08:02.399Z,21.47
2024-03-06T09:08:59.775Z,21.47
2024-03-06T09:09:59.773Z,21.47
2024-03-06T09:10:59.814Z,21.46
2024-03-06T09:11:59.765Z,21.46
2024-03-06T09:12:59.759Z,21.46
2024-03-06T09:14:00.784Z,21.46
2024-03-06T09:14:59.763Z,21.45
2024-03-06T09:15:59.803Z,21.45
2024-03-06T09:16:59.841Z,21.46
2024-03-06T09:17:59.944Z,21.46
2024-03-06T09:18:59.741Z,21.46
2024-03-06T09:20:08.406Z,21.47
2024-03-06T09:21:00.872Z,21.47
2024-03-06T09:21:59.820Z,21.47
2024-03-06T09:22:59.850Z,21.48
2024-03-06T09:23:59.784Z,21.48
2024-03-06T09:24:59.795Z,21.47
2024-03-06T09:25:59.855Z,21.46
2024-03-06T09:26:59.802Z,21.47
2024-03-06T09:27:59.806Z,21.47
2024-03-06T09:28:59.845Z,21.48
2024-03-06T09:29:59.794Z,21.48
2024-03-06T09:30:59.805Z,21.48
2024-03-06T09:31:59.913Z,21.48
2024-03-06T09:33:00.102Z,21.48
2024-03-06T09:33:59.935Z,21.47
2024-03-06T09:35:00.356Z,21.48
2024-03-06T09:36:00.097Z,21.48
2024-03-06T09:37:00.128Z,21.50
2024-03-06T09:38:00.163Z,21.53
2024-03-06T09:39:00.167Z,21.57
2024-03-06T09:40:00.256Z,21.61
2024-03-06T09:41:00.290Z,21.65
2024-03-06T09:42:00.346Z,21.69
2024-03-06T09:43:00.383Z,21.74
2024-03-06T09:44:00.407Z,21.78
2024-03-06T09:45:00.438Z,21.81
2024-03-06T09:46:00.566Z,21.84
2024-03-06T09:47:00.557Z,21.89
2024-03-06T09:48:00.732Z,21.93
2024-03-06T09:49:00.569Z,21.96
2024-03-06T09:50:01.659Z,21.98
2024-03-06T09:51:00.635Z,22.00
2024-03-06T09:52:00.685Z,22.01
2024-03-06T09:53:00.736Z,22.02
2024-03-06T09:54:00.703Z,22.04
2024-03-06T09:55:00.753Z,22.07
2024-03-06T09:56:00.845Z,22.08
2024-03-06T09:57:00.728Z,22.10
2024-03-06T09:58:00.747Z,22.13
2024-03-06T09:59:00.817Z,22.14
2024-03-06T10:00:00.817Z,22.17
2024-03-06T10:01:00.818Z,22.19
2024-03-06T10:02:00.861Z,22.20
2024-03-06T10:03:00.795Z,22.22
2024-03-06T10:04:00.799Z,22.24
2024-03-06T10:05:00.965Z,22.25
2024-03-06T10:06:04.456Z,22.27
2024-03-06T10:07:01.902Z,22.27
2024-03-06T10:08:00.932Z,22.29
2024-03-06T10:09:00.903Z,22.29
2024-03-06T10:10:00.922Z,22.31
2024-03-06T10:11:00.976Z,22.31
2024-03-06T10:12:04.702Z,22.33
2024-03-06T10:13:01.932Z,22.32
2024-03-06T10:14:00.933Z,22.33
2024-03-06T10:15:00.934Z,22.34
2024-03-06T10:16:00.957Z,22.36
2024-03-06T10:17:01.008Z,22.36
2024-03-06T10:18:00.972Z,22.36
2024-03-06T10:19:00.957Z,22.37
2024-03-06T10:20:00.989Z,22.38
2024-03-06T10:21:01.756Z,22.40
2024-03-06T10:22:01.027Z,22.41
2024-03-06T10:23:01.075Z,22.42
2024-03-06T10:24:01.109Z,22.44
2024-03-06T10:25:01.242Z,22.46
2024-03-06T10:26:01.353Z,22.49
2024-03-06T10:27:01.331Z,22.51
2024-03-06T10:28:01.402Z,22.54
2024-03-06T10:29:01.464Z,22.56
2024-03-06T10:30:04.293Z,22.57
2024-03-06T10:31:01.535Z,22.59
2024-03-06T10:32:01.635Z,22.61
2024-03-06T10:33:01.696Z,22.61
2024-03-06T10:34:01.568Z,22.63
2024-03-06T10:35:01.639Z,22.64
2024-03-06T10:36:05.138Z,22.64
2024-03-06T10:37:01.548Z,22.65
2024-03-06T10:38:01.570Z,22.66
2024-03-06T10:39:01.604Z,22.66
2024-03-06T10:40:01.553Z,22.67
2024-03-06T10:41:01.602Z,22.67
2024-03-06T10:42:01.531Z,22.67
2024-03-06T10:43:01.595Z,22.68
2024-03-06T10:44:01.563Z,22.67
2024-03-06T10:45:01.610Z,22.64
2024-03-06T10:46:01.614Z,22.63
2024-03-06T10:47:01.705Z,22.60
2024-03-06T10:48:04.222Z,22.59
2024-03-06T10:49:01.565Z,22.58
2024-03-06T10:50:01.978Z,22.58
2024-03-06T10:51:01.567Z,22.60
2024-03-06T10:52:01.601Z,22.63
2024-03-06T10:53:01.615Z,22.65
2024-03-06T10:54:01.635Z,22.67
2024-03-06T10:55:01.598Z,22.68
2024-03-06T10:56:01.665Z,22.70
2024-03-06T10:57:01.591Z,22.71
2024-03-06T10:58:01.599Z,22.70
2024-03-06T10:59:01.664Z,22.71
2024-03-06T11:00:04.512Z,22.72
2024-03-06T11:01:01.635Z,22.72
2024-03-06T11:02:01.705Z,22.73
2024-03-06T11:03:01.598Z,22.74
2024-03-06T11:04:01.634Z,22.74
2024-03-06T11:05:01.705Z,22.76
2024-03-06T11:06:04.963Z,22.77
2024-03-06T11:07:01.613Z,22.77
2024-03-06T11:08:01.664Z,22.78
2024-03-06T11:09:01.621Z,22.79
2024-03-06T11:10:01.652Z,22.79
2024-03-06T11:11:01.664Z,22.81
2024-03-06T11:12:01.678Z,22.84
2024-03-06T11:13:01.609Z,22.86
2024-03-06T11:14:01.665Z,22.88
2024-03-06T11:15:01.609Z,22.88
2024-03-06T11:16:01.613Z,22.90
2024-03-06T11:17:01.670Z,22.91
2024-03-06T11:18:04.134Z,22.92
2024-03-06T11:19:01.857Z,22.92
2024-03-06T11:20:02.369Z,22.94
2024-03-06T11:21:01.859Z,22.94
2024-03-06T11:22:01.868Z,22.94
2024-03-06T11:23:01.910Z,22.95
2024-03-06T11:24:04.722Z,22.95
2024-03-06T11:25:01.925Z,22.96
2024-03-06T11:26:01.993Z,22.97
2024-03-06T11:27:02.011Z,22.98
2024-03-06T11:28:01.929Z,22.99
2024-03-06T11:29:01.940Z,23.00
2024-03-06T11:30:04.539Z,23.01
2024-03-06T11:31:01.956Z,23.00
2024-03-06T11:32:01.980Z,23.02
2024-03-06T11:33:02.329Z,23.03
2024-03-06T11:34:02.035Z,23.02
2024-03-06T11:35:01.897Z,23.02
2024-03-06T11:36:05.022Z,23.00
2024-03-06T11:37:01.918Z,22.98
2024-03-06T11:38:01.985Z,22.96
2024-03-06T11:39:01.989Z,22.94
2024-03-06T11:40:01.939Z,22.92
2024-03-06T11:41:01.991Z,22.86
2024-03-06T11:42:01.978Z,22.81
2024-03-06T11:43:01.925Z,22.78
2024-03-06T11:44:02.105Z,22.76
2024-03-06T11:45:01.901Z,22.74
2024-03-06T11:46:01.914Z,22.72
2024-03-06T11:47:02.016Z,22.71
2024-03-06T11:48:02.071Z,22.70
2024-03-06T11:49:01.927Z,22.70
2024-03-06T11:50:01.967Z,22.69
2024-03-06T11:51:04.744Z,22.69
2024-03-06T11:52:01.919Z,22.67
2024-03-06T11:53:01.997Z,22.67
2024-03-06T11:54:01.941Z,22.63
2024-03-06T11:55:01.940Z,22.60
2024-03-06T11:56:01.954Z,22.59
2024-03-06T11:57:01.945Z,22.58
2024-03-06T11:58:01.957Z,22.55
2024-03-06T11:59:01.994Z,22.53
2024-03-06T12:00:01.927Z,22.53
2024-03-06T12:01:01.979Z,22.53
2024-03-06T12:02:02.005Z,22.53
2024-03-06T12:03:01.980Z,22.52
2024-03-06T12:04:04.910Z,22.52
2024-03-06T12:05:01.931Z,22.52
2024-03-06T12:06:01.953Z,22.51
2024-03-06T12:07:01.969Z,22.50
2024-03-06T12:08:01.938Z,22.51
2024-03-06T12:09:01.929Z,22.51
2024-03-06T12:10:01.968Z,22.49
2024-03-06T12:11:02.036Z,22.46
2024-03-06T12:12:02.124Z,22.33
2024-03-06T12:13:01.961Z,22.17
2024-03-06T12:14:01.986Z,22.03
2024-03-06T12:15:02.057Z,21.95
2024-03-06T12:16:04.727Z,21.90
2024-03-06T12:17:02.031Z,21.89
2024-03-06T12:18:02.071Z,21.90
2024-03-06T12:19:02.014Z,21.92
2024-03-06T12:20:02.087Z,21.95
2024-03-06T12:21:01.934Z,21.97
2024-03-06T12:22:04.670Z,22.00
2024-03-06T12:23:02.011Z,22.03
2024-03-06T12:24:01.974Z,22.07
2024-03-06T12:25:02.023Z,22.12
2024-03-06T12:26:06.102Z,22.15
2024-03-06T12:27:01.967Z,22.18
2024-03-06T12:28:01.975Z,22.20
2024-03-06T12:29:01.995Z,22.22
2024-03-06T12:30:02.096Z,22.24
2024-03-06T12:31:01.962Z,22.25
2024-03-06T12:32:02.109Z,22.26
2024-03-06T12:33:02.059Z,22.26
2024-03-06T12:34:04.760Z,22.27
2024-03-06T12:35:02.488Z,22.27
2024-03-06T12:36:01.995Z,22.26
2024-03-06T12:37:02.032Z,22.26
2024-03-06T12:38:02.857Z,22.25
2024-03-06T12:39:02.002Z,22.24
2024-03-06T12:40:02.091Z,22.23
2024-03-06T12:41:02.019Z,22.22
2024-03-06T12:42:02.006Z,22.22
2024-03-06T12:43:01.984Z,22.22
2024-03-06T12:44:02.107Z,22.23
2024-03-06T12:45:02.010Z,22.24
2024-03-06T12:46:04.270Z,22.26
2024-03-06T12:47:02.063Z,22.25
2024-03-06T12:48:02.095Z,22.23
2024-03-06T12:49:01.993Z,22.19
2024-03-06T12:50:02.094Z,22.14
2024-03-06T12:51:02.010Z,22.07
2024-03-06T12:52:05.695Z,21.99
2024-03-06T12:53:02.107Z,21.93
2024-03-06T12:54:02.130Z,21.86
2024-03-06T12:55:02.037Z,21.79
2024-03-06T12:56:02.148Z,21.73
2024-03-06T12:57:02.039Z,21.68
2024-03-06T12:58:02.010Z,21.59
2024-03-06T12:59:02.106Z,21.54
2024-03-06T13:00:02.035Z,21.51
2024-03-06T13:01:02.070Z,21.50
2024-03-06T13:02:02.138Z,21.45
2024-03-06T13:03:02.026Z,21.44
2024-03-06T13:04:06.470Z,21.40
2024-03-06T13:05:03.036Z,21.40
2024-03-06T13:06:02.192Z,21.40
2024-03-06T13:07:02.030Z,21.40
2024-03-06T13:08:02.058Z,21.38
2024-03-06T13:09:02.017Z,21.29
2024-03-06T13:10:04.817Z,21.21
2024-03-06T13:11:02.133Z,21.14
2024-03-06T13:12:02.219Z,21.15
2024-03-06T13:13:02.055Z,21.14
2024-03-06T13:14:02.184Z,21.13
2024-03-06T13:15:02.065Z,21.11
2024-03-06T13:16:04.867Z,21.11
2024-03-06T13:17:02.121Z,21.08
2024-03-06T13:18:02.125Z,21.10
2024-03-06T13:19:02.074Z,21.11
2024-03-06T13:20:02.162Z,21.09
2024-03-06T13:21:02.104Z,21.07
2024-03-06T13:22:04.467Z,21.03
2024-03-06T13:23:02.109Z,21.01
2024-03-06T13:24:02.088Z,21.00
2024-03-06T13:25:02.051Z,20.98
2024-03-06T13:26:02.337Z,20.96
2024-03-06T13:27:02.061Z,20.93
2024-03-06T13:28:02.049Z,20.91
2024-03-06T13:29:02.104Z,20.89
2024-03-06T13:30:04.743Z,20.89
2024-03-06T13:31:02.071Z,20.89
2024-03-06T13:32:02.188Z,20.89
2024-03-06T13:33:02.248Z,20.90
2024-03-06T13:34:02.107Z,20.90
2024-03-06T13:35:02.159Z,20.88
2024-03-06T13:36:05.223Z,20.87
2024-03-06T13:37:02.053Z,20.86
2024-03-06T13:38:02.106Z,20.87
2024-03-06T13:39:02.128Z,20.87
2024-03-06T13:40:02.282Z,20.87
2024-03-06T13:41:02.128Z,20.87
2024-03-06T13:42:02.097Z,20.86
2024-03-06T13:43:02.089Z,20.86
2024-03-06T13:44:02.135Z,20.87
2024-03-06T13:45:02.075Z,20.87
2024-03-06T13:46:02.101Z,20.87
2024-03-06T13:47:02.114Z,20.85
2024-03-06T13:48:02.179Z,20.84